Time;durP1;ratioP1;P1;durP2;ratioP2;P2;SDS_P1;SDS_P2;PMS_P1;PMS_P2;Temp;Humidity;BMP_temperature;BMP_pressure;BME280_temperature;BME280_humidity;BME280_pressure;Samples;Min_cycle;Max_cycle;Signal;HPM_P1;HPM_P2
2021/05/21 00:00:17;;;;;;;4.53;3.23;;;15.30;80.80;;;;;;5032232;28;20442;-51
2021/05/21 00:02:43;;;;;;;3.40;3.10;;;15.20;80.50;;;;;;5032416;28;20439;-49
2021/05/21 00:05:10;;;;;;;4.30;3.23;;;14.80;80.10;;;;;;5032484;28;20522;-51
2021/05/21 00:07:37;;;;;;;3.67;3.37;;;15.00;80.70;;;;;;5032433;28;20438;-51
2021/05/21 00:10:06;;;;;;;4.70;2.87;;;14.80;80.90;;;;;;5031999;28;20807;-50
2021/05/21 00:12:32;;;;;;;5.03;3.33;;;15.00;81.20;;;;;;5032293;28;20928;-48
2021/05/21 00:14:58;;;;;;;3.07;2.87;;;15.00;81.40;;;;;;5032183;28;20990;-49
2021/05/21 00:17:24;;;;;;;3.30;3.00;;;15.00;81.40;;;;;;5014203;28;20542;-48
2021/05/21 00:19:50;;;;;;;5.83;3.17;;;14.60;81.30;;;;;;5031965;28;20452;-49
2021/05/21 00:22:17;;;;;;;4.30;3.80;;;14.90;82.20;;;;;;5032249;28;20444;-49
2021/05/21 00:24:43;;;;;;;4.43;3.10;;;14.70;82.60;;;;;;5032073;28;20486;-49
2021/05/21 00:27:10;;;;;;;3.80;3.40;;;14.80;83.70;;;;;;5032009;28;20430;-50
2021/05/21 00:29:36;;;;;;;6.23;3.70;;;15.20;83.50;;;;;;5031724;28;20492;-50
2021/05/21 00:32:02;;;;;;;3.43;3.13;;;15.00;83.40;;;;;;5032174;28;20513;-50
2021/05/21 00:34:29;;;;;;;3.53;3.13;;;14.60;83.60;;;;;;5031987;28;20449;-50
2021/05/21 00:36:55;;;;;;;4.00;3.70;;;14.80;83.90;;;;;;5032117;28;20428;-50
2021/05/21 00:39:21;;;;;;;3.50;3.20;;;14.70;83.90;;;;;;5031463;28;20796;-50
2021/05/21 00:41:47;;;;;;;7.40;2.90;;;14.80;84.30;;;;;;5031666;28;20519;-50
2021/05/21 00:44:15;;;;;;;3.53;3.23;;;14.50;84.40;;;;;;5031597;28;20471;-50
2021/05/21 00:46:41;;;;;;;4.90;3.60;;;14.70;85.00;;;;;;5031483;28;20795;-49
2021/05/21 00:49:07;;;;;;;3.83;3.43;;;14.90;85.30;;;;;;5031280;28;20439;-49
2021/05/21 00:51:33;;;;;;;3.57;3.27;;;14.70;85.60;;;;;;5031507;28;20521;-50
2021/05/21 00:54:00;;;;;;;8.20;4.13;;;14.80;86.00;;;;;;5031354;28;20466;-50
2021/05/21 00:56:27;;;;;;;3.63;3.33;;;15.10;86.30;;;;;;5031419;28;20430;-50
2021/05/21 00:58:53;;;;;;;4.47;4.00;;;14.80;85.90;;;;;;5031134;28;20443;-50
2021/05/21 01:01:21;;;;;;;4.27;3.80;;;14.70;86.20;;;;;;5031195;28;20528;-49
2021/05/21 01:03:47;;;;;;;4.47;3.90;;;14.70;86.50;;;;;;5031265;28;20462;-49
2021/05/21 01:06:14;;;;;;;3.50;3.20;;;14.60;86.90;;;;;;5013582;28;20517;-50
2021/05/21 01:08:40;;;;;;;4.17;3.77;;;14.70;87.50;;;;;;5012919;28;20509;-50
2021/05/21 01:11:08;;;;;;;4.27;3.67;;;14.80;87.70;;;;;;5031218;28;20430;-50
2021/05/21 01:13:35;;;;;;;4.23;3.80;;;14.60;88.00;;;;;;5031032;28;20586;-50
2021/05/21 01:16:01;;;;;;;5.60;3.50;;;14.40;87.70;;;;;;5031146;28;20436;-50
2021/05/21 01:18:28;;;;;;;5.63;3.60;;;14.70;88.80;;;;;;5030838;28;20433;-50
2021/05/21 01:20:55;;;;;;;3.83;3.47;;;14.60;88.70;;;;;;5031117;28;20438;-50
2021/05/21 01:23:21;;;;;;;6.53;3.70;;;14.60;89.10;;;;;;5030966;28;20457;-50
2021/05/21 01:25:47;;;;;;;5.33;3.87;;;14.60;89.40;;;;;;5030954;28;20487;-50
2021/05/21 01:28:15;;;;;;;4.30;3.63;;;14.60;89.90;;;;;;5030687;28;20522;-49
2021/05/21 01:30:41;;;;;;;4.03;3.27;;;14.60;89.80;;;;;;5031131;28;20450;-49
2021/05/21 01:33:10;;;;;;;3.67;3.30;;;14.90;90.30;;;;;;5013163;28;20625;-49
2021/05/21 01:35:37;;;;;;;4.30;3.90;;;14.40;90.20;;;;;;5030964;28;20442;-50
2021/05/21 01:38:04;;;;;;;4.63;4.13;;;14.50;90.20;;;;;;5030572;28;20445;-50
2021/05/21 01:40:31;;;;;;;5.10;3.83;;;14.70;90.50;;;;;;5030857;28;20531;-50
2021/05/21 01:43:00;;;;;;;5.03;4.40;;;14.90;90.80;;;;;;5030891;28;20451;-50
2021/05/21 01:45:27;;;;;;;4.03;3.63;;;14.20;90.80;;;;;;5030842;28;20513;-50
2021/05/21 01:47:53;;;;;;;5.43;4.00;;;14.50;91.10;;;;;;5030866;28;20546;-50
2021/05/21 01:50:19;;;;;;;4.50;4.10;;;14.70;91.50;;;;;;5030473;28;20469;-50
2021/05/21 01:52:45;;;;;;;5.43;4.33;;;14.50;91.60;;;;;;5029882;28;20486;-50
2021/05/21 01:55:13;;;;;;;3.90;3.60;;;14.40;91.80;;;;;;5030874;28;20839;-49
2021/05/21 01:57:40;;;;;;;4.60;4.20;;;14.40;92.00;;;;;;5030664;28;20444;-50
2021/05/21 02:00:08;;;;;;;4.80;3.87;;;14.20;92.30;;;;;;5030407;28;20481;-50
2021/05/21 02:02:39;;;;;;;6.23;3.73;;;14.30;92.60;;;;;;5030631;28;20416;-49
2021/05/21 02:05:07;;;;;;;5.13;3.80;;;14.20;92.90;;;;;;5030519;28;20477;-49
2021/05/21 02:07:34;;;;;;;4.40;4.00;;;14.20;93.10;;;;;;5030653;28;20507;-49
2021/05/21 02:10:02;;;;;;;4.60;4.20;;;14.20;93.40;;;;;;5030401;28;20800;-48
2021/05/21 02:12:32;;;;;;;4.47;4.03;;;14.20;93.60;;;;;;5030720;28;20452;-49
2021/05/21 02:14:59;;;;;;;5.83;3.97;;;14.20;93.60;;;;;;5038437;23;20568;-48
2021/05/21 02:17:27;;;;;;;3.83;3.23;;;14.10;94.00;;;;;;5011745;28;20542;-48
2021/05/21 02:19:57;;;;;;;3.80;3.50;;;14.20;94.20;;;;;;5012319;28;20446;-48
2021/05/21 02:22:23;;;;;;;5.00;3.63;;;14.30;94.20;;;;;;5012361;28;20443;-48
2021/05/21 02:24:52;;;;;;;7.23;4.00;;;14.10;94.30;;;;;;5012177;28;20541;-48
2021/05/21 02:27:18;;;;;;;4.17;3.63;;;13.60;94.40;;;;;;5013080;28;20457;-48
2021/05/21 02:29:45;;;;;;;6.50;4.07;;;14.20;94.60;;;;;;5015243;28;20569;-49
2021/05/21 02:32:12;;;;;;;5.07;4.57;;;14.20;94.70;;;;;;5014301;28;20455;-49
2021/05/21 02:34:38;;;;;;;4.23;3.83;;;14.30;94.80;;;;;;5015133;28;20460;-49
2021/05/21 02:37:04;;;;;;;5.40;4.63;;;14.20;95.30;;;;;;4997503;28;20465;-49
2021/05/21 02:39:30;;;;;;;4.30;3.90;;;14.20;95.10;;;;;;5012657;28;20518;-49
2021/05/21 02:41:56;;;;;;;4.50;4.10;;;14.40;95.30;;;;;;5011565;28;20465;-48
2021/05/21 02:44:22;;;;;;;4.10;3.70;;;14.20;95.50;;;;;;5011380;28;20472;-48
2021/05/21 02:46:49;;;;;;;4.10;3.67;;;13.80;95.30;;;;;;5011317;28;20465;-48
2021/05/21 02:49:19;;;;;;;4.63;3.83;;;14.40;95.90;;;;;;5011111;28;20459;-48
2021/05/21 02:51:46;;;;;;;4.17;3.77;;;14.10;95.90;;;;;;5011363;28;20485;-48
2021/05/21 02:54:12;;;;;;;4.13;3.47;;;14.00;95.80;;;;;;5011250;28;20457;-49
2021/05/21 02:56:38;;;;;;;7.50;4.30;;;14.00;96.10;;;;;;5011151;28;20448;-49
2021/05/21 02:59:05;;;;;;;3.77;3.47;;;14.10;96.20;;;;;;5010910;28;20601;-49
2021/05/21 03:01:31;;;;;;;3.87;3.30;;;14.00;96.20;;;;;;5011573;28;20489;-48
2021/05/21 03:03:58;;;;;;;3.83;3.40;;;13.80;96.40;;;;;;5013262;28;20466;-48
2021/05/21 03:06:24;;;;;;;3.80;3.50;;;13.80;96.40;;;;;;5014796;28;20486;-48
2021/05/21 03:08:51;;;;;;;4.40;4.00;;;13.40;96.50;;;;;;5015231;28;20440;-48
2021/05/21 03:11:17;;;;;;;4.30;3.53;;;14.10;96.90;;;;;;5014976;28;20471;-48
2021/05/21 03:13:44;;;;;;;4.30;3.90;;;13.80;97.10;;;;;;5014690;28;20478;-48
2021/05/21 03:16:11;;;;;;;4.57;3.90;;;13.80;97.10;;;;;;5014877;28;20541;-48
2021/05/21 03:18:37;;;;;;;4.37;3.97;;;13.70;97.10;;;;;;5014350;28;20433;-49
2021/05/21 03:21:05;;;;;;;4.70;3.70;;;14.00;97.30;;;;;;5014618;28;20530;-48
2021/05/21 03:23:31;;;;;;;5.13;3.50;;;13.70;97.30;;;;;;5014429;28;20971;-49
2021/05/21 03:25:58;;;;;;;5.30;3.97;;;13.80;97.50;;;;;;5014511;28;20581;-49
2021/05/21 03:28:24;;;;;;;6.87;4.13;;;13.80;97.50;;;;;;5013870;28;20954;-48
2021/05/21 03:30:51;;;;;;;4.30;3.90;;;13.50;97.60;;;;;;5014591;28;20439;-49
2021/05/21 03:33:17;;;;;;;5.43;3.27;;;14.00;97.90;;;;;;5014359;28;20938;-49
2021/05/21 03:35:45;;;;;;;3.60;3.30;;;14.00;97.70;;;;;;5014265;28;20436;-49
2021/05/21 03:38:12;;;;;;;4.57;4.17;;;13.70;98.20;;;;;;5014180;28;20519;-49
2021/05/21 03:40:40;;;;;;;5.43;4.07;;;14.00;97.90;;;;;;5015162;28;20441;-48
2021/05/21 03:43:07;;;;;;;6.23;3.67;;;13.90;97.90;;;;;;5014562;28;20814;-49
2021/05/21 03:45:34;;;;;;;4.30;3.60;;;13.60;97.80;;;;;;5014370;28;20545;-48
2021/05/21 03:48:00;;;;;;;5.43;3.97;;;14.00;98.00;;;;;;5014278;28;20546;-48
2021/05/21 03:50:27;;;;;;;5.37;4.07;;;14.10;98.00;;;;;;5014064;28;20510;-48
2021/05/21 03:52:53;;;;;;;6.83;3.77;;;14.40;98.20;;;;;;5014247;28;20470;-48
2021/05/21 03:55:20;;;;;;;4.80;4.20;;;14.10;97.80;;;;;;5014199;28;20462;-49
2021/05/21 03:57:47;;;;;;;4.67;4.27;;;14.00;97.70;;;;;;5014264;28;20441;-48
2021/05/21 04:00:16;;;;;;;6.60;4.40;;;14.20;97.70;;;;;;5013709;28;20542;-48
2021/05/21 04:02:42;;;;;;;7.50;3.50;;;14.20;97.90;;;;;;5014058;28;20458;-49
2021/05/21 04:05:09;;;;;;;3.87;3.10;;;14.00;97.60;;;;;;5013989;28;20484;-48
2021/05/21 04:07:35;;;;;;;5.27;4.37;;;14.20;97.90;;;;;;5014030;28;20458;-49
2021/05/21 04:10:02;;;;;;;5.50;4.23;;;14.40;97.80;;;;;;5013878;28;20444;-49
2021/05/21 04:12:29;;;;;;;4.53;3.77;;;13.90;97.60;;;;;;5013853;28;20446;-48
2021/05/21 04:14:55;;;;;;;4.67;3.77;;;14.30;97.70;;;;;;5012750;28;20625;-48
2021/05/21 04:17:22;;;;;;;4.20;3.80;;;14.50;97.80;;;;;;5013768;28;20430;-49
2021/05/21 04:19:49;;;;;;;5.10;4.40;;;14.30;97.90;;;;;;5013128;28;20989;-49
2021/05/21 04:22:15;;;;;;;4.90;4.40;;;14.30;97.80;;;;;;5013513;28;20444;-48
2021/05/21 04:24:42;;;;;;;10.40;5.00;;;14.50;97.60;;;;;;5013653;28;20486;-50
2021/05/21 04:27:08;;;;;;;4.10;3.70;;;14.40;97.60;;;;;;5014218;28;20513;-49
2021/05/21 04:29:35;;;;;;;5.07;4.00;;;14.50;97.60;;;;;;5013477;28;20450;-49
2021/05/21 04:32:02;;;;;;;5.30;3.90;;;14.50;97.70;;;;;;5013615;28;20438;-50
2021/05/21 04:34:28;;;;;;;8.50;4.37;;;14.40;98.00;;;;;;5013563;28;20497;-49
2021/05/21 04:36:56;;;;;;;6.67;4.63;;;14.40;97.80;;;;;;5013049;28;20439;-49
2021/05/21 04:39:22;;;;;;;6.90;4.10;;;14.50;97.90;;;;;;5012635;28;20438;-49
2021/05/21 04:41:49;;;;;;;5.10;3.40;;;14.80;97.80;;;;;;5013567;28;20431;-49
2021/05/21 04:44:15;;;;;;;3.80;3.27;;;14.60;97.60;;;;;;5013166;28;20470;-50
2021/05/21 04:46:42;;;;;;;6.90;5.47;;;14.50;97.40;;;;;;5013195;28;20436;-49
2021/05/21 04:49:08;;;;;;;4.23;3.13;;;14.80;97.30;;;;;;5012850;28;20530;-49
2021/05/21 04:51:34;;;;;;;3.70;3.40;;;14.50;97.10;;;;;;4995387;28;20455;-49
2021/05/21 04:54:02;;;;;;;8.43;3.63;;;15.20;97.20;;;;;;5013174;28;20542;-49
2021/05/21 04:56:28;;;;;;;4.20;3.80;;;15.20;97.00;;;;;;5013055;28;20929;-49
2021/05/21 04:58:54;;;;;;;4.90;3.83;;;15.00;96.70;;;;;;5013365;28;20789;-49
2021/05/21 05:01:20;;;;;;;13.63;5.77;;;15.30;96.80;;;;;;5013180;28;20437;-49
2021/05/21 05:03:47;;;;;;;5.30;3.30;;;15.20;96.80;;;;;;5012594;28;20448;-50
2021/05/21 05:06:13;;;;;;;4.00;3.20;;;15.40;96.70;;;;;;5012248;28;20480;-49
2021/05/21 05:08:40;;;;;;;3.67;3.33;;;15.10;96.40;;;;;;5012256;28;20428;-48
2021/05/21 05:11:07;;;;;;;6.07;3.93;;;15.40;96.40;;;;;;5012061;28;20847;-49
2021/05/21 05:13:33;;;;;;;7.13;4.07;;;15.80;96.50;;;;;;4994317;28;20575;-49
2021/05/21 05:15:59;;;;;;;3.83;3.43;;;15.80;96.40;;;;;;5012295;28;20486;-48
2021/05/21 05:18:25;;;;;;;10.33;4.17;;;15.90;96.30;;;;;;5012367;28;20437;-49
2021/05/21 05:20:53;;;;;;;4.07;3.47;;;15.70;95.80;;;;;;5012727;28;20987;-49
2021/05/21 05:23:19;;;;;;;6.80;4.13;;;15.70;95.70;;;;;;5012927;28;20436;-49
2021/05/21 05:25:47;;;;;;;5.57;3.83;;;16.00;95.70;;;;;;4994974;28;21008;-50
2021/05/21 05:28:14;;;;;;;5.63;4.00;;;15.80;95.30;;;;;;4993897;28;20944;-49
2021/05/21 05:30:40;;;;;;;5.07;3.70;;;16.10;95.30;;;;;;5012119;28;20440;-48
2021/05/21 05:33:06;;;;;;;4.80;4.30;;;16.10;95.00;;;;;;5011766;28;20515;-49
2021/05/21 05:35:32;;;;;;;4.53;3.90;;;16.10;94.90;;;;;;5012221;28;20507;-50
2021/05/21 05:38:01;;;;;;;6.30;3.13;;;16.20;94.70;;;;;;5011878;28;20437;-48
2021/05/21 05:40:27;;;;;;;4.00;3.60;;;16.30;94.60;;;;;;5012334;28;20456;-50
2021/05/21 05:42:53;;;;;;;7.47;4.30;;;16.10;94.30;;;;;;5012430;28;20947;-49
2021/05/21 05:45:19;;;;;;;5.67;3.17;;;16.30;94.20;;;;;;5011980;28;20480;-49
2021/05/21 05:47:46;;;;;;;4.30;3.90;;;16.40;94.00;;;;;;5011658;28;20433;-50
2021/05/21 05:50:12;;;;;;;6.40;3.83;;;16.50;94.20;;;;;;4993958;28;20444;-49
2021/05/21 05:52:38;;;;;;;10.70;4.33;;;16.50;94.00;;;;;;5011615;28;20436;-49
2021/05/21 05:55:06;;;;;;;3.80;2.83;;;16.50;93.70;;;;;;5011596;28;20452;-50
2021/05/21 05:57:32;;;;;;;5.93;3.83;;;16.60;93.50;;;;;;5011758;28;21003;-49
2021/05/21 05:59:59;;;;;;;5.07;3.37;;;16.80;93.40;;;;;;4993397;28;20463;-49
2021/05/21 06:02:25;;;;;;;5.93;3.30;;;16.60;93.20;;;;;;5011559;28;20433;-48
2021/05/21 06:04:51;;;;;;;4.33;3.43;;;17.10;93.10;;;;;;5011431;28;20584;-48
2021/05/21 06:07:18;;;;;;;3.27;2.80;;;17.00;92.70;;;;;;5011838;28;20464;-49
2021/05/21 06:09:44;;;;;;;4.07;3.10;;;17.20;92.70;;;;;;5011349;28;20469;-50
2021/05/21 06:12:11;;;;;;;4.20;2.73;;;17.30;92.30;;;;;;5011177;28;20447;-50
2021/05/21 06:14:37;;;;;;;6.60;3.00;;;17.70;92.10;;;;;;5011679;28;20490;-49
2021/05/21 06:17:03;;;;;;;5.00;2.83;;;17.70;91.80;;;;;;5011565;28;20786;-49
2021/05/21 06:19:30;;;;;;;4.83;2.90;;;17.60;91.50;;;;;;5011624;28;20528;-50
2021/05/21 06:21:56;;;;;;;4.03;3.03;;;17.50;90.90;;;;;;5011279;28;20428;-49
2021/05/21 06:24:22;;;;;;;6.40;2.53;;;17.60;90.90;;;;;;5011128;28;20556;-48
2021/05/21 06:29:30;;;;;;;5.90;3.00;;;17.90;90.40;;;;;;5010073;28;20441;-51
2021/05/21 06:31:58;;;;;;;4.17;2.50;;;17.40;90.00;;;;;;5011391;28;20931;-49
2021/05/21 06:34:27;;;;;;;3.73;2.07;;;17.90;89.80;;;;;;5011473;28;20451;-49
2021/05/21 06:36:53;;;;;;;3.63;2.60;;;17.90;89.50;;;;;;5011420;28;20441;-49
2021/05/21 06:39:19;;;;;;;3.53;2.33;;;18.20;89.10;;;;;;5013823;28;20460;-50
2021/05/21 06:41:45;;;;;;;4.23;2.37;;;18.10;88.50;;;;;;5015304;28;20442;-49
2021/05/21 06:44:12;;;;;;;5.30;2.83;;;17.80;87.70;;;;;;4997154;28;20502;-48
2021/05/21 06:46:39;;;;;;;3.07;2.57;;;18.10;87.50;;;;;;4997183;28;20478;-50
2021/05/21 06:49:10;;;;;;;4.83;2.53;;;18.30;87.70;;;;;;5014093;28;20786;-50
2021/05/21 06:51:37;;;;;;;4.30;2.17;;;18.20;87.10;;;;;;5015379;28;20447;-50
2021/05/21 06:54:04;;;;;;;6.87;2.83;;;18.20;86.80;;;;;;5014774;28;20451;-50
2021/05/21 06:56:30;;;;;;;3.00;2.30;;;18.10;86.40;;;;;;5014968;28;21012;-49
2021/05/21 06:58:56;;;;;;;4.50;2.53;;;18.10;86.20;;;;;;5014261;28;20435;-49
2021/05/21 07:01:22;;;;;;;4.27;2.67;;;17.90;85.80;;;;;;5015221;28;20457;-50
2021/05/21 07:03:49;;;;;;;4.50;2.37;;;18.40;86.50;;;;;;5015067;28;20482;-49
2021/05/21 07:06:16;;;;;;;3.23;2.57;;;18.60;86.70;;;;;;5014276;28;20531;-50
2021/05/21 07:08:42;;;;;;;3.80;2.50;;;18.20;85.40;;;;;;4996947;28;20464;-50
2021/05/21 07:11:08;;;;;;;6.00;3.20;;;18.30;84.20;;;;;;5014709;28;20430;-50
2021/05/21 07:13:34;;;;;;;5.40;2.57;;;18.60;84.40;;;;;;5014462;28;20604;-49
2021/05/21 07:16:01;;;;;;;3.80;2.47;;;18.20;83.60;;;;;;5014626;28;20448;-49
2021/05/21 07:18:27;;;;;;;2.77;1.60;;;18.50;82.60;;;;;;5013836;28;20440;-48
2021/05/21 07:20:59;;;;;;;3.13;1.80;;;18.60;82.20;;;;;;5014559;28;20933;-50
2021/05/21 07:23:25;;;;;;;6.23;2.17;;;19.10;82.60;;;;;;5014825;28;20459;-49
2021/05/21 07:25:51;;;;;;;4.83;2.13;;;19.00;81.90;;;;;;5014205;28;20475;-51
2021/05/21 07:28:18;;;;;;;7.03;2.00;;;19.30;81.10;;;;;;5013891;28;20553;-49
2021/05/21 07:30:45;;;;;;;2.40;1.90;;;18.90;80.40;;;;;;5013743;28;20569;-51
2021/05/21 07:33:11;;;;;;;4.37;2.10;;;19.30;80.20;;;;;;5013802;28;20432;-51
2021/05/21 07:35:38;;;;;;;2.80;2.03;;;19.20;77.00;;;;;;5013882;28;20816;-50
2021/05/21 07:38:05;;;;;;;4.83;1.97;;;19.40;77.30;;;;;;5013960;28;20518;-47
2021/05/21 07:40:31;;;;;;;5.63;1.90;;;19.50;76.30;;;;;;5013700;28;20556;-48
2021/05/21 07:42:57;;;;;;;5.00;2.20;;;19.60;75.70;;;;;;5014104;28;20514;-49
2021/05/21 07:45:24;;;;;;;3.70;2.50;;;19.70;75.60;;;;;;4996282;28;20575;-50
2021/05/21 07:47:50;;;;;;;5.53;1.70;;;19.80;75.20;;;;;;5014047;28;20425;-49
2021/05/21 07:50:16;;;;;;;3.87;1.80;;;19.80;74.90;;;;;;5012471;28;20538;-51
2021/05/21 07:52:43;;;;;;;3.23;1.93;;;19.80;74.20;;;;;;5013799;28;20948;-50
2021/05/21 07:55:11;;;;;;;3.03;1.50;;;19.60;73.50;;;;;;5013931;28;21042;-49
2021/05/21 07:57:37;;;;;;;3.67;2.27;;;19.30;73.30;;;;;;5013602;28;20838;-49
2021/05/21 08:00:05;;;;;;;3.80;2.63;;;19.20;73.90;;;;;;5013348;28;20482;-52
2021/05/21 08:02:36;;;;;;;3.27;1.97;;;19.40;74.80;;;;;;5014056;28;20464;-50
2021/05/21 08:05:02;;;;;;;3.80;2.00;;;19.10;74.90;;;;;;5013312;28;20529;-50
2021/05/21 08:07:29;;;;;;;4.13;1.80;;;19.20;75.10;;;;;;5013065;28;20882;-49
2021/05/21 08:09:56;;;;;;;4.63;2.00;;;19.30;75.00;;;;;;5013298;28;20535;-50
2021/05/21 08:12:23;;;;;;;4.27;1.77;;;19.00;74.30;;;;;;4995718;28;20474;-48
2021/05/21 08:14:49;;;;;;;6.03;2.60;;;19.20;74.40;;;;;;5018194;23;20920;-50
2021/05/21 08:17:16;;;;;;;6.13;3.13;;;19.20;74.30;;;;;;5031970;28;20446;-50
2021/05/21 08:19:42;;;;;;;3.10;1.87;;;19.10;73.60;;;;;;5031222;28;20451;-50
2021/05/21 08:22:09;;;;;;;5.13;2.13;;;19.20;73.70;;;;;;5032180;28;20543;-50
2021/05/21 08:24:35;;;;;;;2.70;1.93;;;19.20;73.90;;;;;;5030677;28;20459;-50
2021/05/21 08:27:01;;;;;;;9.00;2.60;;;19.50;74.30;;;;;;5031375;28;20495;-51
2021/05/21 08:29:28;;;;;;;5.50;2.10;;;19.20;74.00;;;;;;5031314;28;20457;-51
2021/05/21 08:31:54;;;;;;;4.43;2.40;;;19.20;73.40;;;;;;5031452;28;20434;-51
2021/05/21 08:34:21;;;;;;;3.50;1.77;;;19.10;73.20;;;;;;5031306;28;20549;-50
2021/05/21 08:36:47;;;;;;;3.80;2.33;;;19.30;73.60;;;;;;5031314;28;20450;-51
2021/05/21 08:39:14;;;;;;;5.67;2.20;;;19.40;73.50;;;;;;5030759;28;20453;-51
2021/05/21 08:41:44;;;;;;;3.33;1.40;;;19.30;73.50;;;;;;5031116;28;20447;-50
2021/05/21 08:44:10;;;;;;;3.73;1.80;;;19.50;73.00;;;;;;5030940;28;20462;-51
2021/05/21 08:46:37;;;;;;;4.33;1.40;;;19.40;72.60;;;;;;5031374;28;20482;-51
2021/05/21 08:49:04;;;;;;;3.30;1.70;;;19.60;71.10;;;;;;5030695;28;20918;-50
2021/05/21 08:51:30;;;;;;;2.77;1.20;;;19.90;70.70;;;;;;5031047;28;20904;-50
2021/05/21 08:53:57;;;;;;;1.73;1.27;;;19.80;70.60;;;;;;5030782;28;20473;-50
2021/05/21 08:56:23;;;;;;;3.50;1.73;;;20.00;70.00;;;;;;5031103;28;21027;-52
2021/05/21 08:58:51;;;;;;;4.13;1.80;;;20.10;69.10;;;;;;5030226;28;20432;-50
2021/05/21 09:01:18;;;;;;;7.50;1.87;;;20.20;69.00;;;;;;5030509;28;20450;-52
2021/05/21 09:03:48;;;;;;;4.73;2.50;;;20.40;68.20;;;;;;5030891;28;20453;-51
2021/05/21 09:06:17;;;;;;;2.73;1.33;;;20.80;67.20;;;;;;5030696;28;20481;-50
2021/05/21 09:08:46;;;;;;;3.97;1.87;;;20.70;66.20;;;;;;5030160;28;20440;-51
2021/05/21 09:11:27;;;;;;;6.57;2.73;;;20.40;65.30;;;;;;5030862;28;20536;-52
2021/05/21 09:13:58;;;;;;;3.70;1.40;;;20.60;65.30;;;;;;5030731;28;20547;-50
2021/05/21 09:16:26;;;;;;;5.10;2.00;;;20.80;65.40;;;;;;5030596;28;20866;-50
2021/05/21 09:19:10;;;;;;;8.77;1.70;;;20.50;64.70;;;;;;5030349;28;20585;-50
2021/05/21 09:22:02;;;;;;;3.40;1.90;;;21.00;65.50;;;;;;5012296;28;20459;-51
2021/05/21 09:24:32;;;;;;;3.30;1.60;;;21.20;65.00;;;;;;5012062;28;20495;-51
2021/05/21 09:26:59;;;;;;;3.53;1.47;;;21.10;64.80;;;;;;5030242;28;20475;-51
2021/05/21 09:29:39;;;;;;;2.60;1.27;;;21.00;64.60;;;;;;5030073;28;20433;-51
2021/05/21 09:32:25;;;;;;;6.30;2.10;;;20.80;64.00;;;;;;5030560;28;20438;-51
2021/05/21 09:35:04;;;;;;;3.23;1.60;;;20.50;63.60;;;;;;5029829;28;20456;-51
2021/05/21 09:37:32;;;;;;;4.40;1.80;;;20.60;63.90;;;;;;5030408;28;20472;-51
2021/05/21 09:40:07;;;;;;;5.63;2.10;;;20.70;64.30;;;;;;5029589;28;20464;-52
2021/05/21 09:42:54;;;;;;;3.23;1.50;;;20.60;64.60;;;;;;5029897;28;20459;-51
2021/05/21 09:45:27;;;;;;;6.63;1.80;;;20.80;63.40;;;;;;5029918;28;20545;-51
2021/05/21 09:47:58;;;;;;;6.27;1.23;;;21.00;62.30;;;;;;5029779;28;20898;-51
2021/05/21 09:50:34;;;;;;;7.20;1.43;;;21.00;59.70;;;;;;5029659;28;20439;-51
2021/05/21 09:53:03;;;;;;;2.77;1.20;;;21.30;59.40;;;;;;5030213;28;20436;-51
2021/05/21 09:55:35;;;;;;;2.97;1.30;;;21.10;59.30;;;;;;5029691;28;20973;-50
2021/05/21 09:58:01;;;;;;;6.53;1.30;;;21.00;59.50;;;;;;5029303;28;20444;-50
2021/05/21 10:00:27;;;;;;;7.20;1.63;;;21.20;59.30;;;;;;5029803;28;20441;-51
2021/05/21 10:02:54;;;;;;;4.07;1.37;;;21.30;59.30;;;;;;5029951;28;20719;-52
2021/05/21 10:05:21;;;;;;;2.60;1.97;;;21.10;59.20;;;;;;5029430;28;20928;-51
2021/05/21 10:07:52;;;;;;;3.23;1.40;;;21.30;58.90;;;;;;5030162;28;20810;-50
2021/05/21 10:10:18;;;;;;;8.00;1.67;;;21.30;58.80;;;;;;5029550;28;21012;-50
2021/05/21 10:12:45;;;;;;;4.53;1.80;;;21.10;57.70;;;;;;5029685;28;20540;-51
2021/05/21 10:15:12;;;;;;;7.33;1.70;;;21.40;58.20;;;;;;5033707;28;20992;-51
2021/05/21 10:17:39;;;;;;;11.07;1.83;;;20.90;57.30;;;;;;5033999;28;20433;-50
2021/05/21 10:20:07;;;;;;;6.10;1.50;;;21.10;57.60;;;;;;5032969;28;20443;-50
2021/05/21 10:22:36;;;;;;;5.30;1.43;;;21.10;56.60;;;;;;5033669;28;20524;-51
2021/05/21 10:25:10;;;;;;;3.10;1.70;;;21.30;54.90;;;;;;5033667;28;20578;-54
2021/05/21 10:27:39;;;;;;;4.20;1.50;;;21.30;54.70;;;;;;5033937;28;20499;-51
2021/05/21 10:30:08;;;;;;;9.83;1.40;;;21.30;54.80;;;;;;5033573;28;20772;-51
2021/05/21 10:32:35;;;;;;;9.07;1.30;;;21.70;54.50;;;;;;5033779;28;20430;-51
2021/05/21 10:35:15;;;;;;;5.13;1.40;;;21.70;54.90;;;;;;5033966;28;20459;-51
2021/05/21 10:38:17;;;;;;;6.73;1.53;;;21.50;54.30;;;;;;5033578;28;20457;-50
2021/05/21 10:41:14;;;;;;;2.70;1.30;;;21.60;53.90;;;;;;5033527;28;21049;-50
2021/05/21 10:43:49;;;;;;;3.77;1.40;;;21.60;53.70;;;;;;5015055;28;20471;-50
2021/05/21 10:46:27;;;;;;;4.87;1.50;;;22.00;53.70;;;;;;5033684;28;20934;-50
2021/05/21 10:48:56;;;;;;;3.50;1.53;;;21.60;53.80;;;;;;5032890;28;20449;-51
2021/05/21 10:51:23;;;;;;;5.37;1.80;;;21.90;54.00;;;;;;5033313;28;20536;-51
2021/05/21 10:54:28;;;;;;;3.90;1.60;;;21.50;53.20;;;;;;5033076;28;20533;-51
2021/05/21 10:57:07;;;;;;;2.17;1.10;;;21.70;52.90;;;;;;5032966;28;20918;-51
2021/05/21 10:59:54;;;;;;;2.90;1.37;;;21.70;53.40;;;;;;5033114;28;20541;-51
2021/05/21 11:02:24;;;;;;;4.87;1.70;;;21.50;53.60;;;;;;5032018;28;20605;-51
2021/05/21 11:04:50;;;;;;;2.90;1.40;;;21.40;53.50;;;;;;5032697;28;20481;-51
2021/05/21 11:07:33;;;;;;;3.77;1.57;;;21.90;53.40;;;;;;5032344;28;20470;-51
2021/05/21 11:10:00;;;;;;;5.17;1.80;;;21.40;52.80;;;;;;5031667;28;20439;-51
2021/05/21 11:12:43;;;;;;;3.90;1.20;;;21.80;52.00;;;;;;5032719;28;20473;-50
2021/05/21 11:15:37;;;;;;;2.40;1.50;;;21.80;51.30;;;;;;5032921;28;20466;-50
2021/05/21 11:18:24;;;;;;;2.63;1.10;;;21.90;51.90;;;;;;5032325;28;20457;-50
2021/05/21 11:21:03;;;;;;;3.67;1.53;;;21.60;51.90;;;;;;5032269;28;20555;-50
2021/05/21 11:23:35;;;;;;;6.10;1.93;;;21.50;52.40;;;;;;5032094;28;20439;-51
2021/05/21 11:26:21;;;;;;;7.33;2.47;;;21.40;52.80;;;;;;5031832;28;20485;-50
2021/05/21 11:28:49;;;;;;;4.90;2.10;;;21.80;52.80;;;;;;5031942;28;20439;-51
2021/05/21 11:31:17;;;;;;;4.50;1.73;;;21.60;52.00;;;;;;5031992;28;20440;-51
2021/05/21 11:33:46;;;;;;;5.87;1.70;;;21.90;52.50;;;;;;5031765;28;21017;-51
2021/05/21 11:36:13;;;;;;;3.53;1.30;;;21.60;52.30;;;;;;5032383;28;20435;-52
2021/05/21 11:38:40;;;;;;;6.03;1.40;;;21.90;52.40;;;;;;5031928;28;20834;-51
2021/05/21 11:41:09;;;;;;;3.07;1.23;;;21.50;52.40;;;;;;5031920;28;20785;-51
2021/05/21 11:43:39;;;;;;;3.57;1.47;;;22.00;52.20;;;;;;5031916;28;20472;-50
2021/05/21 11:46:13;;;;;;;4.53;3.40;;;22.00;51.20;;;;;;5032406;28;20520;-50
2021/05/21 11:48:40;;;;;;;4.73;1.80;;;22.00;51.70;;;;;;5032178;28;20626;-50
2021/05/21 11:51:13;;;;;;;7.03;1.47;;;22.10;51.80;;;;;;5031799;28;20450;-50
2021/05/21 11:53:47;;;;;;;4.43;1.73;;;22.00;51.60;;;;;;5031779;28;21011;-51
2021/05/21 11:56:14;;;;;;;3.07;1.30;;;21.80;50.90;;;;;;5031792;28;20444;-51
2021/05/21 11:58:40;;;;;;;5.33;1.87;;;22.00;51.50;;;;;;5033084;28;20442;-51
2021/05/21 12:01:07;;;;;;;4.90;1.10;;;21.70;51.40;;;;;;5031673;28;20439;-51
2021/05/21 12:03:37;;;;;;;2.47;2.10;;;22.10;51.70;;;;;;5014092;28;20482;-51
2021/05/21 12:06:04;;;;;;;4.93;1.70;;;22.00;51.80;;;;;;5031281;28;20932;-51
2021/05/21 12:08:31;;;;;;;6.43;2.17;;;22.00;51.90;;;;;;5031226;28;20441;-51
2021/05/21 12:10:58;;;;;;;4.07;1.50;;;22.10;52.10;;;;;;5031622;28;20935;-50
2021/05/21 12:13:28;;;;;;;3.20;1.23;;;22.20;52.20;;;;;;5031253;28;20509;-51
2021/05/21 12:16:09;;;;;;;4.30;2.07;;;22.00;51.70;;;;;;5031733;28;20455;-50
2021/05/21 12:18:36;;;;;;;5.57;1.50;;;22.00;51.80;;;;;;5030894;28;20431;-50
2021/05/21 12:21:02;;;;;;;6.83;1.97;;;22.00;52.10;;;;;;5031645;28;20527;-51
2021/05/21 12:23:35;;;;;;;11.57;1.30;;;22.10;51.90;;;;;;5031168;28;20877;-52
2021/05/21 12:26:02;;;;;;;3.33;1.90;;;22.40;51.70;;;;;;5031225;28;20581;-50
2021/05/21 12:28:29;;;;;;;3.27;1.57;;;22.40;51.80;;;;;;5030920;28;20471;-52
2021/05/21 12:31:01;;;;;;;2.87;1.30;;;22.40;51.70;;;;;;5031377;28;20973;-52
2021/05/21 12:33:29;;;;;;;5.53;1.43;;;22.80;50.50;;;;;;5031405;28;20478;-52
2021/05/21 12:36:03;;;;;;;7.30;1.43;;;22.60;49.50;;;;;;5030111;28;20896;-51
2021/05/21 12:38:29;;;;;;;4.50;1.70;;;22.70;48.60;;;;;;5030467;28;20900;-52
2021/05/21 12:40:59;;;;;;;3.70;1.80;;;22.60;48.70;;;;;;5030946;28;20444;-50
2021/05/21 12:43:27;;;;;;;6.40;1.70;;;22.50;48.50;;;;;;5030777;28;20521;-50
2021/05/21 12:45:55;;;;;;;3.63;2.00;;;22.60;49.20;;;;;;5031146;28;20470;-51
2021/05/21 12:48:35;;;;;;;4.00;1.40;;;22.20;49.20;;;;;;5031059;28;20426;-51
2021/05/21 12:51:17;;;;;;;4.07;2.10;;;22.20;49.50;;;;;;5031994;28;20522;-51
2021/05/21 12:53:44;;;;;;;8.90;2.03;;;22.20;49.60;;;;;;5030805;28;20546;-51